Weather observations for the past three days for
Summerville Airport
Imperial (Metric)
Date Time (edt) Wind (mph) Vis. (mi.) Weather Sky Cond. Temperature (ºF) Relative Humidity Wind Chill (°F) Heat Index (°F) Pressure Precipitation (in)
Air Dwpt 6 hour altimeter (in) sea level (mb) 1 hr 3 hr 6 hr
Max. Min.
10 15:55 Calm 8.00 Fair CLR 86 57.2 38% 85 29.94 0.0
10 15:35 Calm 8.00 Fair CLR 86 59 40% 85 29.95 0.0
10 15:15 Calm 9.00 Fair CLR 86 59 40% 85 29.95 0.0
10 14:55 Calm 9.00 Fair CLR 84.2 59 43% 84 29.96 0.0
10 14:35 Calm 9.00 Fair CLR 84.2 57.2 40% 83 29.97 0.0
10 13:55 Calm 9.00 Fair CLR 84.2 59 43% 84 29.98 0.0
10 13:35 Calm 9.00 Fair CLR 82.4 60.8 48% 83 29.98 0.0
10 13:15 Vrbl 7 8.00 A Few Clouds FEW049 82.4 60.8 48% 83 29.99 0.0
10 12:55 Calm 8.00 Fair CLR 80.6 60.8 51% 81 29.99 0.0
10 12:35 Calm 9.00 Fair CLR 78.8 62.6 58% 80 30 0.0
10 12:15 Calm 9.00 Fair CLR 80.6 64.4 58% 82 30 0.0
10 11:55 S 3 9.00 Fair CLR 78.8 62.6 58% 80 30 0.0
10 11:35 Calm 9.00 Fair CLR 77 62.6 61% 79 30 0.0
10 11:15 Vrbl 3 9.00 A Few Clouds FEW026 77 64.4 65% 79 30 0.0
10 10:55 W 6 9.00 A Few Clouds FEW026 77 64.4 65% 79 30 0.0
10 10:35 Calm 9.00 Fair CLR 75.2 64.4 69% 77 29.99 0.0
10 10:15 Vrbl 3 9.00 Fair CLR 73.4 66.2 78% 29.99 0.0
10 09:55 Vrbl 5 9.00 Fair CLR 73.4 66.2 78% 29.99 0.0
10 09:35 Vrbl 3 9.00 A Few Clouds FEW008 71.6 66.2 83% 29.99 0.0
10 08:55 Calm 8.00 Partly Cloudy FEW006 SCT080 68 66.2 94% 29.99 0.0
10 08:35 Calm 7.00 Partly Cloudy SCT080 68 66.2 94% 29.99 0.0
10 08:15 Calm 8.00 A Few Clouds FEW085 66.2 66.2 100% 29.99 0.0
10 07:55 Calm 7.00 Fair CLR 66.2 66.2 100% 29.98 0.0
10 07:35 Calm 6.00 Fog/Mist CLR 66.2 66.2 100% 29.98 0.0
10 07:15 Calm 6.00 Fog/Mist CLR 66.2 66.2 100% 29.97 0.0
10 06:55 Calm 5.00 Fog/Mist CLR 66.2 64.4 94% 29.97 0.0
10 06:35 Calm 7.00 A Few Clouds FEW080 66.2 66.2 100% 29.96 0.0
10 06:15 Calm 7.00 Partly Cloudy SCT080 SCT100 66.2 66.2 100% 29.96 0.0
10 05:55 Calm 6.00 Fog/Mist SCT085 66.2 66.2 100% 29.95 0.0
10 05:35 Calm 7.00 A Few Clouds FEW024 66.2 66.2 100% 29.94 0.0
10 05:15 Calm 8.00 Partly Cloudy FEW024 SCT055 SCT075 66.2 66.2 100% 29.93 0.0
10 04:55 Calm 8.00 Mostly Cloudy FEW055 FEW070 BKN090 66.2 66.2 100% 29.94 0.0 0.01
10 04:35 Calm 6.00 Fog/Mist FEW041 FEW060 OVC095 66.2 66.2 100% 29.94 0.0
10 04:15 Calm 9.00 Mostly Cloudy FEW008 SCT032 BKN046 66.2 66.2 100% 29.91 0.0
10 03:55 Calm 3.00 Light Rain Fog/Mist SCT005 BKN036 OVC120 66.2 66.2 100% 29.92 0.0 0.02
10 03:35 Calm 9.00 Mostly Cloudy FEW050 SCT070 BKN120 66.2 66.2 100% 29.93 0.0
10 03:15 Calm 9.00 Mostly Cloudy FEW050 SCT065 BKN090 66.2 66.2 100% 29.92 0.0
10 02:55 Calm 10.00 Partly Cloudy SCT110 68 66.2 94% 29.93 0.0
10 02:35 Calm 9.00 Partly Cloudy FEW070 SCT120 68 66.2 94% 29.93 0.0
10 02:15 Calm 10.00 Overcast SCT070 SCT090 OVC120 68 66.2 94% 29.93 0.0
10 01:55 Calm 9.00 Mostly Cloudy FEW055 SCT100 BKN120 68 66.2 94% 29.93 0.0
10 01:35 Calm 9.00 A Few Clouds FEW120 68 66.2 94% 29.93 0.0
10 01:15 Calm 9.00 Fair CLR 68 66.2 94% 29.92 0.0
10 00:55 Calm 9.00 A Few Clouds FEW120 68 66.2 94% 29.92 0.0
10 00:35 Calm 10.00 Fair CLR 68 66.2 94% 29.92 0.0
10 00:15 Calm 9.00 Fair CLR 68 66.2 94% 29.92 0.0
09 23:55 Calm 10.00 A Few Clouds FEW090 69.8 66.2 88% 29.92 0.0
09 23:15 Calm 9.00 Overcast OVC090 69.8 66.2 88% 29.92 0.0
09 22:55 Calm 10.00 Overcast OVC095 69.8 66.2 88% 29.91 0.0
09 22:35 Calm 9.00 Mostly Cloudy BKN100 69.8 66.2 88% 29.91 0.0
09 22:15 Calm 10.00 Partly Cloudy SCT100 SCT120 71.6 66.2 83% 29.9 0.0
09 21:55 Calm 10.00 Mostly Cloudy BKN120 71.6 66.2 83% 29.9 0.0
09 21:35 Calm 9.00 Overcast OVC110 71.6 66.2 83% 29.9 0.0
09 21:15 Calm 10.00 Overcast OVC110 71.6 66.2 83% 29.89 0.0
09 20:55 Calm 10.00 Overcast OVC110 73.4 66.2 78% 29.88 0.0
09 20:35 Calm 10.00 Overcast OVC110 73.4 66.2 78% 29.87 0.0
09 20:15 Calm 9.00 Mostly Cloudy BKN110 73.4 66.2 78% 29.87 0.0
09 19:55 Calm 9.00 Mostly Cloudy BKN120 73.4 66.2 78% 29.86 0.0
09 19:35 Calm 10.00 Mostly Cloudy BKN120 75.2 66.2 74% 77 29.86 0.0
09 19:15 Calm 9.00 Mostly Cloudy BKN120 75.2 64.4 69% 77 29.86 0.0
09 18:35 W 6 9.00 Fair CLR 77 64.4 65% 79 29.85 0.0
09 18:15 Calm 10.00 Fair CLR 77 64.4 65% 79 29.85 0.0
09 17:55 Vrbl 7 10.00 Mostly Cloudy BKN050 77 64.4 65% 79 29.85 0.0
09 17:35 Vrbl 7 9.00 Mostly Cloudy BKN050 77 64.4 65% 79 29.86 0.0
09 17:15 W 6 9.00 Partly Cloudy SCT049 SCT055 78.8 66.2 65% 81 29.85 0.0
09 16:55 Calm 8.00 Mostly Cloudy SCT050 BKN055 77 66.2 69% 79 29.85 0.0
09 16:35 W 6 9.00 Mostly Cloudy BKN060 BKN070 77 66.2 69% 79 29.85 0.0
09 16:15 W 3 9.00 Overcast BKN055 OVC065 77 66.2 69% 79 29.86 0.0
09 15:55 W 7 9.00 Overcast BKN055 BKN065 OVC075 77 66.2 69% 79 29.86 0.0
09 15:35 Calm 9.00 Overcast FEW049 OVC060 77 66.2 69% 79 29.86 0.0
09 15:15 Vrbl 3 8.00 Mostly Cloudy FEW034 SCT049 BKN060 78.8 66.2 65% 81 29.87 0.0
09 14:55 Calm 9.00 Mostly Cloudy FEW034 BKN070 BKN080 78.8 66.2 65% 81 29.87 0.0
09 14:35 Calm 9.00 Overcast BKN070 OVC085 78.8 66.2 65% 81 29.87 0.0
09 14:15 Vrbl 6 9.00 Mostly Cloudy BKN085 77 64.4 65% 79 29.88 0.0
09 13:55 Vrbl 5 G 12 9.00 Mostly Cloudy BKN090 78.8 66.2 65% 81 29.87 0.0
09 13:35 S 7 9.00 Overcast BKN090 OVC110 77 66.2 69% 79 29.87 0.0
09 13:15 Vrbl 7 G 13 9.00 Mostly Cloudy FEW028 SCT090 BKN110 78.8 66.2 65% 81 29.88 0.0
09 12:55 Vrbl 7 9.00 Mostly Cloudy FEW022 SCT090 BKN120 77 66.2 69% 79 29.9 0.0
09 12:35 Calm 9.00 Mostly Cloudy FEW022 BKN075 BKN085 75.2 66.2 74% 77 29.9 0.0
09 12:15 SW 7 9.00 Mostly Cloudy BKN075 BKN110 75.2 66.2 74% 77 29.91 0.0
09 11:55 S 5 8.00 Mostly Cloudy BKN070 BKN080 BKN110 73.4 66.2 78% 29.91 0.0
09 11:35 Calm 8.00 Overcast BKN070 BKN095 OVC110 73.4 66.2 78% 29.91 0.0
09 11:15 Calm 9.00 Mostly Cloudy FEW014 SCT075 BKN110 73.4 66.2 78% 29.9 0.0
09 10:55 S 5 9.00 Overcast BKN075 BKN090 OVC110 71.6 64.4 78% 29.92 0.0
09 10:35 Calm 9.00 Overcast FEW016 OVC080 71.6 62.6 73% 29.92 0.0
09 10:15 Calm 10.00 Mostly Cloudy SCT015 BKN080 BKN110 69.8 64.4 83% 29.92 0.0
09 09:55 Calm 8.00 Mostly Cloudy SCT085 BKN110 69.8 64.4 83% 29.92 0.0
09 09:35 Calm 8.00 Mostly Cloudy SCT085 BKN110 68 64.4 88% 29.91 0.0
09 09:15 Calm 8.00 Mostly Cloudy SCT090 BKN110 68 64.4 88% 29.92 0.0
09 08:55 Calm 8.00 Mostly Cloudy BKN100 66.2 62.6 88% 29.92 0.0
09 08:35 Calm 8.00 Overcast OVC100 64.4 62.6 94% 29.93 0.0
09 08:15 Calm 7.00 Overcast OVC100 64.4 62.6 94% 29.93 0.0
09 07:55 Calm 7.00 Overcast OVC100 62.6 60.8 94% 29.92 0.0
09 07:35 Calm 7.00 Mostly Cloudy BKN110 60.8 60.8 100% 29.92 0.0
09 07:15 Calm 7.00 A Few Clouds FEW110 60.8 59 94% 29.92 0.0
09 06:55 Calm 6.00 Fog/Mist CLR 60.8 59 94% 29.9 0.0
09 06:35 Calm 7.00 A Few Clouds FEW019 60.8 59 94% 29.9 0.0
09 06:15 Calm 8.00 A Few Clouds FEW020 60.8 59 94% 29.89 0.0
09 05:55 Calm 9.00 Partly Cloudy SCT120 60.8 59 94% 29.89 0.0
09 05:35 Calm 9.00 Partly Cloudy FEW055 FEW070 SCT110 60.8 60.8 100% 29.9 0.0
09 05:15 Calm 9.00 Partly Cloudy SCT055 SCT070 SCT110 60.8 59 94% 29.9 0.0
09 04:55 Calm 9.00 A Few Clouds FEW055 FEW070 FEW080 60.8 59 94% 29.9 0.0
09 04:35 Calm 9.00 Fair CLR 60.8 59 94% 29.9 0.0
09 03:55 Calm 9.00 Fair CLR 60.8 59 94% 29.91 0.0
09 03:35 Calm 9.00 Fair CLR 62.6 59 88% 29.92 0.0
09 03:15 Calm 9.00 Fair CLR 62.6 59 88% 29.9 0.0
09 02:55 Calm 9.00 Fair CLR 62.6 59 88% 29.91 0.0
09 02:35 Calm 9.00 Fair CLR 60.8 59 94% 29.93 0.0
09 02:15 Calm 10.00 A Few Clouds FEW085 62.6 59 88% 29.93 0.0
09 01:55 Calm 9.00 Fair CLR 62.6 59 88% 29.95 0.0
09 01:35 Calm 9.00 Fair CLR 62.6 59 88% 29.94 0.0
09 01:15 Calm 9.00 Fair CLR 62.6 59 88% 29.94 0.0
09 00:55 Calm 9.00 Fair CLR 62.6 59 88% 29.97 0.0
09 00:35 Calm 10.00 Fair CLR 64.4 59 83% 29.97 0.0
09 00:15 Calm 10.00 Mostly Cloudy FEW043 SCT080 BKN100 62.6 59 88% 29.98 0.0
08 23:55 Calm 9.00 Mostly Cloudy FEW065 SCT090 BKN110 64.4 57.2 78% 29.98 0.0
08 23:35 Calm 9.00 Partly Cloudy SCT100 SCT120 62.6 59 88% 29.99 0.0
08 23:15 Calm 10.00 A Few Clouds FEW080 FEW110 64.4 59 83% 30 0.0
08 22:55 Calm 9.00 Fair CLR 62.6 57.2 83% 30 0.0
08 22:35 Calm 9.00 Fair CLR 62.6 59 88% 29.99 0.0
08 22:15 Calm 9.00 Partly Cloudy SCT041 64.4 57.2 78% 29.99 0.0
08 21:55 Calm 10.00 A Few Clouds FEW042 64.4 57.2 78% 29.99 0.0
08 21:35 Calm 10.00 Fair CLR 64.4 57.2 78% 29.98 0.0
08 21:15 Calm 9.00 A Few Clouds FEW044 64.4 55.4 73% 29.99 0.0
08 20:35 Calm 9.00 Fair CLR 66.2 55.4 68% 29.97 0.0
08 20:15 Calm 10.00 Fair CLR 68 55.4 64% 29.97 0.0
08 19:55 Calm 9.00 Fair CLR 68 53.6 60% 29.96 0.0
08 19:35 Calm 10.00 Fair CLR 68 55.4 64% 29.96 0.0
08 19:15 Calm 9.00 Fair CLR 68 55.4 64% 29.95 0.0
08 18:55 Calm 9.00 Fair CLR 68 55.4 64% 29.96 0.0
08 18:15 Calm 9.00 Fair CLR 69.8 55.4 60% 29.95 0.0
08 17:55 Calm 9.00 A Few Clouds FEW038 FEW047 69.8 55.4 60% 29.96 0.0
08 17:35 Vrbl 6 9.00 Partly Cloudy SCT038 SCT048 71.6 55.4 57% 29.95 0.0
08 17:15 Calm 9.00 Fair CLR 73.4 55.4 53% 29.95 0.0
08 16:55 Calm 9.00 Fair CLR 73.4 51.8 47% 29.95 0.0
08 16:35 Calm 9.00 Fair CLR 75.2 51.8 44% 78 29.94 0.0
08 16:15 NE 6 10.00 Fair CLR 75.2 51.8 44% 78 29.95 0.0
08 15:55 Calm 10.00 Fair CLR 73.4 51.8 47% 29.96 0.0
08 15:35 Calm 10.00 Fair CLR 73.4 51.8 47% 29.97 0.0
08 15:15 N 3 9.00 Fair CLR 73.4 51.8 47% 29.97 0.0
08 14:55 Calm 9.00 Fair CLR 73.4 50 44% 29.98 0.0
08 14:35 Calm 9.00 Fair CLR 73.4 50 44% 29.98 0.0
08 14:15 Calm 9.00 Fair CLR 73.4 50 44% 29.99 0.0
08 13:55 Calm 10.00 Fair CLR 71.6 50 47% 30 0.0
08 13:35 Calm 9.00 Fair CLR 71.6 50 47% 30 0.0
08 13:15 Calm 9.00 Fair CLR 71.6 48.2 44% 30.01 0.0
08 12:55 Calm 10.00 Fair CLR 71.6 48.2 44% 30.02 0.0
08 12:35 Vrbl 5 G 13 9.00 Fair CLR 69.8 48.2 46% 30.02 0.0
08 12:15 Calm 9.00 Fair CLR 69.8 50 50% 30.03 0.0
08 11:55 N 7 9.00 Fair CLR 68 50 53% 30.05 0.0
08 11:35 Vrbl 6 G 13 9.00 Fair CLR 68 48.2 49% 30.05 0.0
08 11:15 NE 7 10.00 Fair CLR 68 48.2 49% 30.05 0.0
08 10:55 Vrbl 7 G 15 10.00 Fair CLR 68 48.2 49% 30.05 0.0
08 10:35 NE 10 10.00 Fair CLR 66.2 50 56% 30.05 0.0
08 10:15 N 12 10.00 Fair CLR 66.2 51.8 60% 30.04 0.0
08 09:55 Vrbl 7 G 13 10.00 Fair CLR 64.4 53.6 68% 30.04 0.0
08 09:15 NE 10 10.00 Fair CLR 62.6 55.4 77% 30.03 0.0
08 08:35 N 7 10.00 Fair CLR 59 57.2 94% 30.02 0.0
08 08:15 N 7 10.00 Fair CLR 59 57.2 94% 30.01 0.0
08 07:55 N 5 10.00 Fair CLR 59 57.2 94% 30.01 0.0
08 07:35 N 5 10.00 Fair CLR 59 57.2 94% 29.99 0.0
08 07:15 N 5 10.00 Fair CLR 59 57.2 94% 29.98 0.0
08 06:55 Calm 10.00 Fair CLR 57.2 57.2 100% 29.97 0.0
08 06:35 Calm 10.00 Fair CLR 57.2 55.4 94% 29.96 0.0
08 06:15 Calm 10.00 Fair CLR 57.2 57.2 100% 29.95 0.0
08 05:55 Calm 10.00 Fair CLR 57.2 57.2 100% 29.94 0.0
08 05:35 N 3 9.00 Fair CLR 59 57.2 94% 29.94 0.0
08 05:15 Calm 8.00 Fair CLR 57.2 57.2 100% 29.94 0.0
08 04:55 Calm 8.00 Fair CLR 59 59 100% 29.94 0.0
08 04:35 Calm 9.00 Fair CLR 59 59 100% 29.94 0.0
08 04:15 Calm 9.00 Fair CLR 59 59 100% 29.93 0.0
08 03:35 Calm 9.00 Fair CLR 60.8 59 94% 29.92 0.0
08 03:15 Calm 10.00 Fair CLR 60.8 59 94% 29.92 0.0
08 02:55 Calm 10.00 Fair CLR 60.8 59 94% 29.92 0.0
08 02:35 N 7 10.00 Fair CLR 62.6 59 88% 29.92 0.0
08 02:15 NE 8 10.00 Partly Cloudy FEW020 SCT025 64.4 60.8 88% 29.92 0.0
08 01:55 N 10 10.00 Overcast SCT017 BKN023 OVC047 66.2 62.6 88% 29.91 0.0
08 01:35 NW 6 10.00 Mostly Cloudy FEW025 BKN047 68 64.4 88% 29.9 0.0
08 01:15 NW 6 10.00 Mostly Cloudy BKN046 68 66.2 94% 29.89 0.0
08 00:55 NW 6 9.00 Mostly Cloudy BKN042 69.8 66.2 88% 29.89 0.0
08 00:35 NW 7 10.00 Mostly Cloudy BKN040 69.8 66.2 88% 29.88 0.0
08 00:15 NW 7 9.00 A Few Clouds FEW005 FEW037 69.8 69.8 100% 29.88 0.0
07 23:55 NW 7 9.00 A Few Clouds FEW005 FEW038 69.8 69.8 100% 29.87 0.0
07 23:35 W 7 8.00 A Few Clouds FEW037 69.8 69.8 100% 29.87 0.0
07 22:55 W 6 7.00 Fair CLR 69.8 69.8 100% 29.87 0.0
07 22:35 Calm 5.00 Fog/Mist FEW005 69.8 69.8 100% 29.86 0.0
07 22:15 Calm 4.00 Fog/Mist CLR 69.8 69.8 100% 29.85 0.0
07 21:55 Calm 7.00 Fair CLR 69.8 69.8 100% 29.84 0.0
07 21:35 Calm 7.00 Fair CLR 71.6 71.6 100% 29.83 0.0
07 21:15 Calm 7.00 Fair CLR 69.8 69.8 100% 29.82 0.0
07 20:55 Calm 6.00 Fog/Mist CLR 69.8 69.8 100% 29.82 0.0
07 20:35 Calm 7.00 Fair CLR 71.6 71.6 100% 29.81 0.0
07 20:15 Calm 8.00 Fair CLR 71.6 71.6 100% 29.8 0.0
07 19:55 Calm 9.00 Fair CLR 73.4 71.6 94% 29.8 0.0
07 19:35 Calm 8.00 A Few Clouds FEW041 FEW050 73.4 71.6 94% 29.8 0.0
07 19:15 Vrbl 5 9.00 Mostly Cloudy FEW041 BKN048 73.4 71.6 94% 29.8 0.0
07 18:55 Calm 8.00 Overcast FEW010 SCT018 OVC048 73.4 71.6 94% 29.79 0.0
07 18:35 NW 5 2.50 Light Rain Fog/Mist OVC018 73.4 71.6 94% 29.8 0.0
07 18:15 W 3 8.00 Overcast OVC020 73.4 71.6 94% 29.79 0.0
07 17:55 Vrbl 7 10.00 Overcast BKN021 OVC026 75.2 71.6 89% 75 29.79 0.0
07 17:35 W 6 G 12 10.00 Overcast OVC029 75.2 71.6 89% 75 29.79 0.0
07 17:15 W 8 G 16 9.00 Overcast BKN031 OVC041 73.4 71.6 94% 29.79 0.0
07 16:55 W 9 G 16 3.00 Fog/Mist FEW011 SCT024 BKN035 71.6 71.6 100% 29.79 0.0 0.07
07 16:35 SW 8 G 15 6.00 Fog/Mist FEW005 SCT009 BKN013 71.6 69.8 94% 29.79 0.0
07 16:15 Vrbl 7 G 15 1.50 Light Rain Fog/Mist SCT005 BKN009 OVC034 71.6 69.8 94% 29.8 0.0
Date Time (edt) Wind (mph) Vis. (mi.) Weather Sky Cond. Air Dwpt Max. Min. Relative Humidity Wind Chill (°F) Heat Index (°F) altimeter (in) sea level (mb) 1 hr 3 hr 6 hr
6 hour
Temperature (ºF) Pressure Precipitation (in)